| time (UTC) | temp F | wind direction | speed knots | gust knots | rain 1hr in | rain 24hr in | rain mn in | humidity % | barometer mb |
| 20260506183005 | 66 | 231 | 7.0 | 17.4 | 0.00 | 0.00 | 0.00 | 75 | 1008.0 |
| 20260506182003 | 67 | 225 | 7.0 | 17.4 | 0.00 | 0.00 | 0.00 | 72 | 1007.9 |
| 20260506181004 | 67 | 218 | 6.1 | 18.2 | 0.00 | 0.00 | 0.00 | 72 | 1008.0 |
| 20260506180503 | 67 | 212 | 6.1 | 15.6 | 0.00 | 0.00 | 0.00 | 72 | 1007.8 |
| 20260506175504 | 67 | 214 | 6.1 | 15.6 | 0.00 | 0.00 | 0.00 | 72 | 1008.0 |
| 20260506175004 | 67 | 206 | 5.2 | 13.0 | 0.00 | 0.00 | 0.00 | 72 | 1008.2 |
| 20260506174504 | 67 | 209 | 5.2 | 13.9 | 0.00 | 0.00 | 0.00 | 72 | 1008.2 |
| 20260506174003 | 67 | 218 | 6.1 | 13.9 | 0.00 | 0.00 | 0.00 | 72 | 1008.2 |
| 20260506173504 | 67 | 220 | 6.1 | 15.6 | 0.00 | 0.00 | 0.00 | 72 | 1008.2 |
| 20260506173004 | 67 | 216 | 6.1 | 16.5 | 0.00 | 0.00 | 0.00 | 72 | 1008.2 |
| 20260506172004 | 67 | 221 | 5.2 | 13.9 | 0.00 | 0.00 | 0.00 | 73 | 1008.3 |
| 20260506171503 | 67 | 217 | 6.1 | 13.9 | 0.00 | 0.00 | 0.00 | 73 | 1008.4 |
| 20260506171004 | 67 | 218 | 7.8 | 17.4 | 0.00 | 0.00 | 0.00 | 73 | 1008.3 |
| 20260506170503 | 68 | 216 | 6.1 | 17.4 | 0.00 | 0.00 | 0.00 | 72 | 1008.4 |
| 20260506170003 | 68 | 208 | 5.2 | 13.0 | 0.00 | 0.00 | 0.00 | 72 | 1008.4 |
| 20260506165504 | 68 | 208 | 7.0 | 20.9 | 0.00 | 0.00 | 0.00 | 72 | 1008.4 |
| 20260506165005 | 69 | 205 | 7.8 | 20.9 | 0.00 | 0.00 | 0.00 | 71 | 1008.4 |
| 20260506164003 | 69 | 211 | 4.3 | 13.0 | 0.00 | 0.00 | 0.00 | 71 | 1008.6 |
| 20260506163503 | 68 | 214 | 4.3 | 12.2 | 0.00 | 0.00 | 0.00 | 70 | 1008.7 |
| 20260506163004 | 68 | 213 | 5.2 | 12.2 | 0.00 | 0.00 | 0.00 | 70 | 1008.8 |
| 20260506162503 | 68 | 206 | 4.3 | 10.4 | 0.00 | 0.00 | 0.00 | 71 | 1009.0 |
| 20260506162003 | 68 | 205 | 3.5 | 12.2 | 0.00 | 0.00 | 0.00 | 71 | 1009.1 |
| 20260506161503 | 68 | 206 | 3.5 | 12.2 | 0.00 | 0.00 | 0.00 | 70 | 1009.4 |
| 20260506160504 | 69 | 208 | 4.3 | 10.4 | 0.00 | 0.00 | 0.00 | 69 | 1009.5 |
| 20260506160003 | 68 | 217 | 2.6 | 9.6 | 0.00 | 0.00 | 0.00 | 69 | 1009.6 |
| 20260506155505 | 68 | 228 | 3.5 | 10.4 | 0.00 | 0.00 | 0.00 | 69 | 1009.7 |
| 20260506155003 | 68 | 225 | 5.2 | 12.2 | 0.00 | 0.00 | 0.00 | 68 | 1009.7 |
| 20260506154004 | 69 | 225 | 6.1 | 13.9 | 0.00 | 0.00 | 0.00 | 65 | 1009.5 |
| 20260506153504 | 69 | 215 | 6.1 | 14.8 | 0.00 | 0.00 | 0.00 | 66 | 1009.6 |
| 20260506153004 | 69 | 211 | 7.0 | 20.0 | 0.00 | 0.00 | 0.00 | 63 | 1009.5 |
| 20260506152504 | 69 | 213 | 6.1 | 20.0 | 0.00 | 0.00 | 0.00 | 63 | 1009.7 |
| 20260506152004 | 70 | 210 | 5.2 | 12.2 | 0.00 | 0.00 | 0.00 | 63 | 1009.6 |
| 20260506151504 | 70 | 208 | 5.2 | 12.2 | 0.00 | 0.00 | 0.00 | 61 | 1009.5 |
| 20260506151004 | 71 | 219 | 5.2 | 11.3 | 0.00 | 0.00 | 0.00 | 62 | 1009.4 |
| 20260506150504 | 71 | 223 | 7.0 | 16.5 | 0.00 | 0.00 | 0.00 | 62 | 1009.6 |
| 20260506150004 | 70 | 217 | 6.1 | 16.5 | 0.00 | 0.00 | 0.00 | 62 | 1009.6 |
| 20260506145503 | 70 | 211 | 5.2 | 13.0 | 0.00 | 0.00 | 0.00 | 62 | 1009.6 |
| 20260506145003 | 69 | 214 | 5.2 | 13.0 | 0.00 | 0.00 | 0.00 | 62 | 1009.7 |
| 20260506144504 | 69 | 214 | 6.1 | 13.0 | 0.00 | 0.00 | 0.00 | 62 | 1009.8 |
| 20260506144005 | 69 | 216 | 5.2 | 13.0 | 0.00 | 0.00 | 0.00 | 62 | 1009.8 |
| 20260506143503 | 69 | 226 | 5.2 | 17.4 | 0.00 | 0.00 | 0.00 | 62 | 1009.9 |
| 20260506142504 | 70 | 228 | 7.0 | 15.6 | 0.00 | 0.00 | 0.00 | 61 | 1009.7 |
| 20260506142004 | 70 | 216 | 7.0 | 16.5 | 0.00 | 0.00 | 0.00 | 62 | 1009.7 |
| 20260506141004 | 70 | 224 | 6.1 | 13.9 | 0.00 | 0.00 | 0.00 | 61 | 1009.6 |
| 20260506140503 | 70 | 220 | 7.0 | 17.4 | 0.00 | 0.00 | 0.00 | 62 | 1009.7 |
| 20260506140003 | 69 | 211 | 7.0 | 17.4 | 0.00 | 0.00 | 0.00 | 62 | 1009.6 |
| 20260506135505 | 69 | 211 | 6.1 | 13.9 | 0.00 | 0.00 | 0.00 | 62 | 1009.6 |
| 20260506135004 | 69 | 221 | 5.2 | 16.5 | 0.00 | 0.00 | 0.00 | 63 | 1009.5 |
| 20260506134504 | 69 | 222 | 7.0 | 16.5 | 0.00 | 0.00 | 0.00 | 63 | 1009.6 |
| 20260506134004 | 69 | 217 | 7.0 | 18.2 | 0.00 | 0.00 | 0.00 | 63 | 1009.6 |
| 20260506133504 | 69 | 208 | 7.0 | 18.2 | 0.00 | 0.00 | 0.00 | 62 | 1009.5 |
| 20260506133003 | 69 | 213 | 6.1 | 16.5 | 0.00 | 0.00 | 0.00 | 62 | 1009.5 |
| 20260506132503 | 69 | 220 | 6.1 | 15.6 | 0.00 | 0.00 | 0.00 | 62 | 1009.6 |
| 20260506132005 | 69 | 220 | 7.0 | 16.5 | 0.00 | 0.00 | 0.00 | 62 | 1009.7 |
| 20260506131504 | 69 | 221 | 7.8 | 24.3 | 0.00 | 0.00 | 0.00 | 62 | 1009.8 |
| 20260506131004 | 70 | 217 | 7.8 | 24.3 | 0.00 | 0.00 | 0.00 | 62 | 1009.9 |
| 20260506130504 | 70 | 219 | 7.0 | 13.0 | 0.00 | 0.00 | 0.00 | 62 | 1009.9 |
| 20260506125505 | 70 | 207 | 7.0 | 20.0 | 0.00 | 0.00 | 0.00 | 62 | 1009.7 |
| 20260506125003 | 70 | 214 | 7.0 | 17.4 | 0.00 | 0.00 | 0.00 | 64 | 1009.8 |
| 20260506124503 | 68 | 215 | 7.8 | 17.4 | 0.00 | 0.00 | 0.00 | 65 | 1009.8 |
| 20260506124004 | 68 | 208 | 7.8 | 15.6 | 0.00 | 0.00 | 0.00 | 65 | 1009.8 |
| 20260506123503 | 69 | 207 | 7.8 | 16.5 | 0.00 | 0.00 | 0.00 | 64 | 1009.8 |
| 20260506122004 | 68 | 209 | 5.2 | 11.3 | 0.00 | 0.00 | 0.00 | 67 | 1009.8 |
| 20260506121504 | 67 | 209 | 5.2 | 12.2 | 0.00 | 0.00 | 0.00 | 68 | 1009.9 |
| 20260506120504 | 66 | 202 | 5.2 | 12.2 | 0.00 | 0.00 | 0.00 | 69 | 1009.9 |
| 20260506120003 | 66 | 201 | 5.2 | 12.2 | 0.00 | 0.00 | 0.00 | 69 | 1010.0 |
| 20260506115503 | 66 | 201 | 6.1 | 11.3 | 0.00 | 0.00 | 0.00 | 69 | 1010.1 |
| 20260506115004 | 66 | 201 | 5.2 | 11.3 | 0.00 | 0.00 | 0.00 | 69 | 1009.9 |
| 20260506114505 | 66 | 201 | 4.3 | 11.3 | 0.00 | 0.00 | 0.00 | 69 | 1010.0 |
| 20260506114004 | 66 | 203 | 5.2 | 13.0 | 0.00 | 0.00 | 0.00 | 70 | 1010.0 |
| 20260506113504 | 66 | 196 | 7.0 | 14.8 | 0.00 | 0.00 | 0.00 | 70 | 1010.0 |
| 20260506113004 | 66 | 195 | 7.8 | 15.6 | 0.00 | 0.00 | 0.00 | 70 | 1010.1 |
| 20260506112503 | 66 | 200 | 6.1 | 15.6 | 0.00 | 0.00 | 0.00 | 69 | 1010.1 |
| 20260506111503 | 66 | 199 | 6.1 | 13.9 | 0.00 | 0.00 | 0.00 | 70 | 1010.0 |
| 20260506111004 | 66 | 203 | 5.2 | 11.3 | 0.00 | 0.00 | 0.00 | 70 | 1010.1 |
| 20260506110004 | 65 | 204 | 4.3 | 13.0 | 0.00 | 0.00 | 0.00 | 71 | 1010.0 |
| 20260506105503 | 64 | 198 | 5.2 | 13.0 | 0.00 | 0.00 | 0.00 | 72 | 1010.0 |
| 20260506105004 | 65 | 195 | 5.2 | 11.3 | 0.00 | 0.00 | 0.00 | 72 | 1009.9 |
| 20260506104504 | 64 | 203 | 4.3 | 10.4 | 0.00 | 0.00 | 0.00 | 72 | 1009.9 |
| 20260506104004 | 64 | 199 | 4.3 | 10.4 | 0.00 | 0.00 | 0.00 | 72 | 1010.0 |
| 20260506103504 | 64 | 195 | 4.3 | 10.4 | 0.00 | 0.00 | 0.00 | 73 | 1009.9 |
| 20260506103004 | 64 | 201 | 4.3 | 13.9 | 0.00 | 0.00 | 0.00 | 73 | 1009.9 |
| 20260506102503 | 64 | 203 | 4.3 | 13.9 | 0.00 | 0.00 | 0.00 | 73 | 1009.9 |
| 20260506101504 | 64 | 208 | 6.1 | 13.9 | 0.00 | 0.00 | 0.00 | 73 | 1010.0 |
| 20260506101004 | 64 | 205 | 6.1 | 13.9 | 0.00 | 0.00 | 0.00 | 73 | 1010.0 |
| 20260506100005 | 64 | 200 | 5.2 | 12.2 | 0.00 | 0.00 | 0.00 | 73 | 1009.9 |
| 20260506095503 | 64 | 198 | 6.1 | 13.0 | 0.00 | 0.00 | 0.00 | 74 | 1009.8 |
| 20260506094504 | 64 | 200 | 5.2 | 12.2 | 0.00 | 0.00 | 0.00 | 74 | 1009.7 |
| 20260506094004 | 64 | 196 | 5.2 | 12.2 | 0.00 | 0.00 | 0.00 | 74 | 1009.7 |
| 20260506093503 | 64 | 195 | 5.2 | 13.0 | 0.00 | 0.00 | 0.00 | 74 | 1009.7 |
| 20260506093004 | 64 | 195 | 5.2 | 13.0 | 0.00 | 0.00 | 0.00 | 73 | 1009.7 |
| 20260506092504 | 64 | 197 | 4.3 | 12.2 | 0.00 | 0.00 | 0.00 | 74 | 1009.7 |
| 20260506092005 | 65 | 202 | 5.2 | 14.8 | 0.00 | 0.00 | 0.00 | 73 | 1009.7 |
| 20260506091503 | 64 | 202 | 4.3 | 14.8 | 0.00 | 0.00 | 0.00 | 74 | 1009.8 |
| 20260506091005 | 64 | 200 | 4.3 | 8.7 | 0.00 | 0.00 | 0.00 | 74 | 1009.8 |
| 20260506090504 | 65 | 197 | 4.3 | 9.6 | 0.00 | 0.00 | 0.00 | 74 | 1009.9 |
| 20260506085504 | 65 | 191 | 5.2 | 12.2 | 0.00 | 0.00 | 0.00 | 74 | 1010.0 |
| 20260506084504 | 65 | 200 | 5.2 | 10.4 | 0.00 | 0.00 | 0.00 | 74 | 1009.9 |
| 20260506084004 | 64 | 199 | 4.3 | 9.6 | 0.00 | 0.00 | 0.00 | 74 | 1010.0 |
| 20260506083504 | 65 | 190 | 4.3 | 11.3 | 0.00 | 0.00 | 0.00 | 74 | 1010.0 |
| 20260506083005 | 65 | 191 | 4.3 | 11.3 | 0.00 | 0.00 | 0.00 | 74 | 1010.0 |
| 20260506082504 | 65 | 193 | 4.3 | 10.4 | 0.00 | 0.00 | 0.00 | 74 | 1010.0 |
| 20260506081503 | 65 | 193 | 4.3 | 12.2 | 0.00 | 0.00 | 0.00 | 74 | 1010.1 |
| 20260506081005 | 65 | 190 | 4.3 | 12.2 | 0.00 | 0.00 | 0.00 | 74 | 1010.1 |
| 20260506080504 | 64 | 188 | 3.5 | 10.4 | 0.00 | 0.00 | 0.00 | 75 | 1010.1 |
| 20260506073504 | 65 | 181 | 3.5 | 9.6 | 0.00 | 0.00 | 0.00 | 74 | 1009.9 |
| 20260506073004 | 65 | 194 | 4.3 | 11.3 | 0.00 | 0.00 | 0.00 | 73 | 1010.0 |
| 20260506072505 | 66 | 194 | 4.3 | 11.3 | 0.00 | 0.00 | 0.00 | 73 | 1010.0 |
| 20260506072004 | 66 | 185 | 3.5 | 9.6 | 0.00 | 0.00 | 0.00 | 73 | 1009.9 |
| 20260506071504 | 66 | 192 | 3.5 | 9.6 | 0.00 | 0.00 | 0.00 | 73 | 1010.1 |
| 20260506071004 | 66 | 194 | 3.5 | 11.3 | 0.00 | 0.00 | 0.00 | 73 | 1010.1 |
| 20260506070504 | 66 | 194 | 3.5 | 11.3 | 0.00 | 0.00 | 0.00 | 73 | 1010.1 |
| 20260506062003 | 66 | 197 | 4.3 | 11.3 | 0.00 | 0.00 | 0.00 | 72 | 1010.3 |
| 20260506061004 | 66 | 193 | 4.3 | 12.2 | 0.00 | 0.00 | 0.00 | 71 | 1010.2 |
| 20260506060504 | 66 | 195 | 4.3 | 12.2 | 0.00 | 0.00 | 0.00 | 71 | 1010.3 |
| 20260506051005 | 67 | 201 | 4.3 | 11.3 | 0.00 | 0.00 | 0.00 | 69 | 1010.6 |
| 20260506050504 | 68 | 210 | 4.3 | 12.2 | 0.00 | 0.00 | 0.00 | 68 | 1010.6 |
| 20260506045004 | 68 | 209 | 5.2 | 13.9 | 0.00 | 0.00 | 0.00 | 68 | 1010.6 |
| 20260506044503 | 68 | 214 | 5.2 | 13.9 | 0.00 | 0.00 | 0.00 | 68 | 1010.7 |
| 20260506044003 | 68 | 203 | 5.2 | 14.8 | 0.00 | 0.00 | 0.00 | 67 | 1010.7 |
| 20260506043505 | 68 | 199 | 5.2 | 14.8 | 0.00 | 0.00 | 0.00 | 67 | 1010.6 |
| 20260506043004 | 68 | 206 | 5.2 | 14.8 | 0.00 | 0.00 | 0.00 | 67 | 1010.6 |
| 20260506042004 | 68 | 201 | 5.2 | 13.9 | 0.00 | 0.00 | 0.00 | 67 | 1010.6 |
| 20260506041505 | 68 | 204 | 5.2 | 13.9 | 0.00 | 0.00 | 0.00 | 66 | 1010.6 |
| 20260506041004 | 68 | 202 | 5.2 | 13.9 | 0.00 | 0.00 | 0.00 | 66 | 1010.5 |
| 20260506040505 | 68 | 196 | 4.3 | 13.9 | 0.00 | 0.00 | 0.00 | 66 | 1010.5 |
| 20260506035503 | 68 | 200 | 5.2 | 11.3 | 0.00 | 0.00 | 0.00 | 65 | 1010.5 |
| 20260506035004 | 68 | 203 | 6.1 | 13.9 | 0.00 | 0.00 | 0.00 | 65 | 1010.6 |
| 20260506034004 | 68 | 198 | 6.1 | 15.6 | 0.00 | 0.00 | 0.00 | 64 | 1010.4 |
| 20260506033504 | 68 | 204 | 6.1 | 18.2 | 0.00 | 0.00 | 0.00 | 64 | 1010.6 |
| 20260506033005 | 69 | 202 | 6.1 | 18.2 | 0.00 | 0.00 | 0.00 | 64 | 1010.5 |
| 20260506032504 | 69 | 201 | 5.2 | 13.0 | 0.00 | 0.00 | 0.00 | 64 | 1010.5 |
| 20260506032006 | 69 | 202 | 6.1 | 13.0 | 0.00 | 0.00 | 0.00 | 63 | 1010.5 |
| 20260506031504 | 69 | 200 | 6.1 | 13.9 | 0.00 | 0.00 | 0.00 | 63 | 1010.5 |
| 20260506031004 | 69 | 197 | 7.0 | 13.9 | 0.00 | 0.00 | 0.00 | 63 | 1010.6 |
| 20260506030504 | 69 | 201 | 7.0 | 16.5 | 0.00 | 0.00 | 0.00 | 63 | 1010.6 |
| 20260506030005 | 69 | 210 | 7.0 | 16.5 | 0.00 | 0.00 | 0.00 | 62 | 1010.6 |
| 20260506025504 | 69 | 207 | 6.1 | 16.5 | 0.00 | 0.00 | 0.00 | 62 | 1010.6 |
| 20260506025004 | 69 | 200 | 7.0 | 16.5 | 0.00 | 0.00 | 0.00 | 61 | 1010.6 |
| 20260506024504 | 69 | 202 | 6.1 | 13.0 | 0.00 | 0.00 | 0.00 | 61 | 1010.7 |
| 20260506023504 | 70 | 203 | 7.0 | 15.6 | 0.00 | 0.00 | 0.00 | 60 | 1010.7 |
| 20260506022504 | 70 | 202 | 7.8 | 18.2 | 0.00 | 0.00 | 0.00 | 59 | 1010.6 |
| 20260506021504 | 70 | 201 | 6.1 | 13.9 | 0.00 | 0.00 | 0.00 | 58 | 1010.6 |
| 20260506021004 | 70 | 203 | 6.1 | 12.2 | 0.00 | 0.00 | 0.00 | 58 | 1010.6 |
| 20260506020005 | 71 | 198 | 5.2 | 20.9 | 0.00 | 0.00 | 0.00 | 57 | 1010.6 |
| 20260506014505 | 71 | 201 | 6.1 | 13.9 | 0.00 | 0.00 | 0.00 | 56 | 1010.4 |
| 20260506014005 | 71 | 196 | 6.1 | 13.9 | 0.00 | 0.00 | 0.00 | 56 | 1010.3 |
| 20260506013005 | 71 | 197 | 4.3 | 13.0 | 0.00 | 0.00 | 0.00 | 56 | 1010.3 |
| 20260506012505 | 71 | 194 | 4.3 | 12.2 | 0.00 | 0.00 | 0.00 | 56 | 1010.2 |
| 20260506012004 | 71 | 191 | 5.2 | 13.9 | 0.00 | 0.00 | 0.00 | 56 | 1010.2 |
| 20260506011504 | 71 | 196 | 5.2 | 17.4 | 0.00 | 0.00 | 0.00 | 56 | 1010.2 |
| 20260506011005 | 71 | 201 | 5.2 | 17.4 | 0.00 | 0.00 | 0.00 | 56 | 1010.1 |
| 20260506010504 | 71 | 195 | 5.2 | 12.2 | 0.00 | 0.00 | 0.00 | 56 | 1010.1 |
| 20260506010005 | 72 | 195 | 5.2 | 10.4 | 0.00 | 0.00 | 0.00 | 56 | 1010.0 |
| 20260506005504 | 72 | 197 | 6.1 | 13.0 | 0.00 | 0.00 | 0.00 | 55 | 1010.1 |
| 20260506005004 | 72 | 195 | 6.1 | 15.6 | 0.00 | 0.00 | 0.00 | 55 | 1010.0 |
| 20260506004505 | 72 | 199 | 5.2 | 15.6 | 0.00 | 0.00 | 0.00 | 55 | 1009.9 |
| 20260506004004 | 72 | 199 | 7.0 | 14.8 | 0.00 | 0.00 | 0.00 | 55 | 1009.9 |
| 20260506003505 | 72 | 199 | 7.8 | 15.6 | 0.00 | 0.00 | 0.00 | 54 | 1009.8 |
| 20260506003004 | 72 | 203 | 7.8 | 16.5 | 0.00 | 0.00 | 0.00 | 54 | 1009.8 |
| 20260506002504 | 73 | 201 | 7.8 | 16.5 | 0.00 | 0.00 | 0.00 | 53 | 1009.7 |
| 20260506002005 | 73 | 195 | 7.0 | 16.5 | 0.00 | 0.00 | 0.00 | 52 | 1009.6 |
| 20260506001504 | 73 | 197 | 6.1 | 13.9 | 0.00 | 0.00 | 0.00 | 51 | 1009.6 |
| 20260506001004 | 74 | 200 | 6.1 | 13.9 | 0.00 | 0.00 | 0.00 | 50 | 1009.6 |
| 20260506000505 | 74 | 195 | 4.3 | 10.4 | 0.00 | 0.00 | 0.00 | 48 | 1009.5 |
| 20260506000004 | 75 | 199 | 5.2 | 13.9 | 0.00 | 0.00 | 0.00 | 46 | 1009.5 |
| 20260505235504 | 75 | 202 | 6.1 | 13.9 | 0.00 | 0.00 | 0.00 | 44 | 1009.4 |
| 20260505235004 | 76 | 202 | 6.1 | 12.2 | 0.00 | 0.00 | 0.00 | 44 | 1009.4 |
| 20260505234504 | 76 | 199 | 6.1 | 12.2 | 0.00 | 0.00 | 0.00 | 43 | 1009.4 |
| 20260505234005 | 76 | 197 | 6.1 | 13.9 | 0.00 | 0.00 | 0.00 | 42 | 1009.2 |
| 20260505233503 | 77 | 197 | 6.1 | 13.9 | 0.00 | 0.00 | 0.00 | 41 | 1009.2 |
| 20260505233005 | 78 | 203 | 6.1 | 14.8 | 0.00 | 0.00 | 0.00 | 40 | 1009.2 |
| 20260505232504 | 78 | 209 | 7.0 | 14.8 | 0.00 | 0.00 | 0.00 | 38 | 1009.0 |
| 20260505232005 | 78 | 203 | 6.1 | 14.8 | 0.00 | 0.00 | 0.00 | 38 | 1009.0 |
| 20260505230504 | 78 | 217 | 5.2 | 17.4 | 0.00 | 0.00 | 0.00 | 38 | 1008.9 |
| 20260505230005 | 79 | 213 | 7.8 | 20.9 | 0.00 | 0.00 | 0.00 | 38 | 1008.8 |
| 20260505225006 | 79 | 213 | 8.7 | 19.1 | 0.00 | 0.00 | 0.00 | 36 | 1008.7 |
| 20260505224504 | 80 | 209 | 7.8 | 20.0 | 0.00 | 0.00 | 0.00 | 37 | 1008.8 |
| 20260505223504 | 80 | 213 | 8.7 | 25.2 | 0.00 | 0.00 | 0.00 | 36 | 1008.8 |
| 20260505223004 | 80 | 215 | 7.8 | 25.2 | 0.00 | 0.00 | 0.00 | 36 | 1008.8 |
| 20260505222504 | 80 | 211 | 8.7 | 20.9 | 0.00 | 0.00 | 0.00 | 36 | 1008.7 |
| 20260505221007 | 81 | 209 | 8.7 | 21.7 | 0.00 | 0.00 | 0.00 | 35 | 1008.7 |
| 20260505220004 | 82 | 206 | 7.8 | 15.6 | 0.00 | 0.00 | 0.00 | 34 | 1008.6 |
| 20260505215004 | 82 | 213 | 8.7 | 21.7 | 0.00 | 0.00 | 0.00 | 33 | 1008.5 |
| 20260505214004 | 82 | 227 | 7.0 | 17.4 | 0.00 | 0.00 | 0.00 | 32 | 1008.5 |
| 20260505213504 | 82 | 238 | 7.0 | 19.1 | 0.00 | 0.00 | 0.00 | 31 | 1008.4 |
| 20260505213004 | 83 | 240 | 7.0 | 19.1 | 0.00 | 0.00 | 0.00 | 32 | 1008.4 |
| 20260505212504 | 83 | 240 | 9.6 | 21.7 | 0.00 | 0.00 | 0.00 | 30 | 1008.4 |
| 20260505211504 | 83 | 233 | 7.8 | 20.0 | 0.00 | 0.00 | 0.00 | 30 | 1008.1 |
| 20260505211004 | 83 | 239 | 9.6 | 20.9 | 0.00 | 0.00 | 0.00 | 28 | 1008.1 |
| 20260505210504 | 83 | 237 | 10.4 | 23.5 | 0.00 | 0.00 | 0.00 | 28 | 1008.2 |
| 20260505205505 | 83 | 242 | 10.4 | 24.3 | 0.00 | 0.00 | 0.00 | 27 | 1008.3 |
| 20260505205004 | 83 | 238 | 10.4 | 24.3 | 0.00 | 0.00 | 0.00 | 26 | 1008.1 |
| 20260505204504 | 84 | 228 | 8.7 | 19.1 | 0.00 | 0.00 | 0.00 | 27 | 1008.0 |
| 20260505204004 | 84 | 222 | 7.8 | 21.7 | 0.00 | 0.00 | 0.00 | 32 | 1008.1 |
| 20260505203504 | 83 | 214 | 9.6 | 21.7 | 0.00 | 0.00 | 0.00 | 32 | 1008.2 |
| 20260505203004 | 84 | 207 | 8.7 | 20.0 | 0.00 | 0.00 | 0.00 | 32 | 1008.2 |
| 20260505202504 | 84 | 198 | 7.0 | 17.4 | 0.00 | 0.00 | 0.00 | 33 | 1008.0 |
| 20260505202004 | 84 | 205 | 7.8 | 17.4 | 0.00 | 0.00 | 0.00 | 34 | 1008.0 |
| 20260505201005 | 84 | 215 | 7.8 | 17.4 | 0.00 | 0.00 | 0.00 | 34 | 1008.1 |
| 20260505200504 | 84 | 210 | 7.8 | 18.2 | 0.00 | 0.00 | 0.00 | 34 | 1008.2 |
| 20260505200005 | 84 | 209 | 8.7 | 21.7 | 0.00 | 0.00 | 0.00 | 33 | 1008.1 |
| 20260505195504 | 84 | 205 | 8.7 | 21.7 | 0.00 | 0.00 | 0.00 | 34 | 1008.3 |
| 20260505195004 | 84 | 205 | 9.6 | 20.0 | 0.00 | 0.00 | 0.00 | 34 | 1008.3 |
| 20260505194504 | 83 | 211 | 7.8 | 20.0 | 0.00 | 0.00 | 0.00 | 35 | 1008.2 |
| 20260505194004 | 84 | 215 | 7.8 | 18.2 | 0.00 | 0.00 | 0.00 | 35 | 1008.5 |
| 20260505193504 | 84 | 214 | 7.8 | 21.7 | 0.00 | 0.00 | 0.00 | 34 | 1008.4 |
| 20260505193005 | 84 | 219 | 7.8 | 21.7 | 0.00 | 0.00 | 0.00 | 35 | 1008.3 |
| 20260505192504 | 84 | 224 | 7.8 | 19.1 | 0.00 | 0.00 | 0.00 | 34 | 1008.5 |
| 20260505192005 | 84 | 223 | 8.7 | 19.1 | 0.00 | 0.00 | 0.00 | 34 | 1008.6 |
| 20260505191504 | 84 | 220 | 8.7 | 18.2 | 0.00 | 0.00 | 0.00 | 36 | 1008.6 |
| 20260505190505 | 84 | 208 | 8.7 | 21.7 | 0.00 | 0.00 | 0.00 | 34 | 1008.6 |
| 20260505190004 | 84 | 206 | 8.7 | 21.7 | 0.00 | 0.00 | 0.00 | 35 | 1008.7 |
| 20260505185504 | 84 | 212 | 8.7 | 17.4 | 0.00 | 0.00 | 0.00 | 38 | 1009.1 |
| 20260505185004 | 83 | 214 | 8.7 | 17.4 | 0.00 | 0.00 | 0.00 | 36 | 1008.9 |
| 20260505184504 | 83 | 211 | 7.8 | 16.5 | 0.00 | 0.00 | 0.00 | 36 | 1009.2 |
| 20260505184005 | 83 | 211 | 7.0 | 15.6 | 0.00 | 0.00 | 0.00 | 37 | 1009.2 |
| 20260505183505 | 84 | 207 | 7.0 | 20.0 | 0.00 | 0.00 | 0.00 | 37 | 1009.2 |